Time;durP1;ratioP1;P1;durP2;ratioP2;P2;SDS_P1;SDS_P2;PMS_P1;PMS_P2;Temp;Humidity;BMP_temperature;BMP_pressure;BME280_temperature;BME280_humidity;BME280_pressure;Samples;Min_cycle;Max_cycle;Signal;HPM_P1;HPM_P2
2024/03/05 00:01:55;;;;;;;;;;;;;;;11.64;78.93;100252.38;4814350;29;19916;-80
2024/03/05 00:04:47;;;;;;;;;;;;;;;11.58;78.48;100241.69;4825565;29;19916;-79
2024/03/05 00:07:39;;;;;;;;;;;;;;;11.55;78.18;100241.56;4810200;29;20311;-79
2024/03/05 00:10:31;;;;;;;;;;;;;;;11.60;77.98;100235.94;4813287;29;20291;-80
2024/03/05 00:13:24;;;;;;;;;;;;;;;11.55;78.27;100236.94;4811172;29;19924;-79
2024/03/05 00:16:16;;;;;;;;;;;;;;;11.63;77.78;100243.41;4827864;29;19916;-80
2024/03/05 00:19:08;;;;;;;;;;;;;;;11.62;77.38;100239.13;4812307;29;19921;-80
2024/03/05 00:22:00;;;;;;;;;;;;;;;11.67;77.07;100236.19;4823832;29;19917;-80
2024/03/05 00:24:52;;;;;;;;;;;;;;;11.71;76.58;100234.41;4826996;29;19917;-79
2024/03/05 00:27:44;;;;;;;;;;;;;;;11.68;76.64;100228.81;4824867;29;19920;-80
2024/03/05 00:30:36;;;;;;;;;;;;;;;11.64;75.83;100238.78;4809500;29;20300;-80
2024/03/05 00:33:28;;;;;;;;;;;;;;;11.68;76.29;100235.06;4810590;29;19917;-79
2024/03/05 00:36:18;;;;;;;;;;;;;;;11.61;76.07;100234.81;4823333;29;20379;-79
2024/03/05 00:39:10;;;;;;;;;;;;;;;11.49;76.69;100221.13;4827133;29;19925;-79
2024/03/05 00:42:02;;;;;;;;;;;;;;;11.51;76.51;100232.50;4812123;29;20375;-80
2024/03/05 00:44:54;;;;;;;;;;;;;;;11.47;76.74;100229.66;4810018;29;20375;-84
2024/03/05 00:47:46;;;;;;;;;;;;;;;11.37;76.69;100223.81;4826812;29;19921;-80
2024/03/05 00:50:38;;;;;;;;;;;;;;;11.45;76.83;100225.66;4824740;29;19916;-80
2024/03/05 00:53:30;;;;;;;;;;;;;;;11.39;76.18;100222.31;4809117;29;19920;-80
2024/03/05 00:56:23;;;;;;;;;;;;;;;11.13;76.61;100221.72;4838471;29;20504;-80
2024/03/05 00:59:19;;;;;;;;;;;;;;;11.13;76.37;100221.72;4841015;29;19925;-78
2024/03/05 01:02:11;;;;;;;;;;;;;;;11.05;76.60;100222.59;4845044;29;19916;-79
2024/03/05 01:05:03;;;;;;;;;;;;;;;11.05;76.69;100215.22;4842830;29;19916;-81
2024/03/05 01:07:57;;;;;;;;;;;;;;;10.90;76.96;100217.72;4840232;29;19916;-80
2024/03/05 01:10:48;;;;;;;;;;;;;;;10.65;78.10;100214.00;4825374;29;19924;-79
2024/03/05 01:13:40;;;;;;;;;;;;;;;10.43;78.69;100222.41;4841044;29;19924;-80
2024/03/05 01:16:32;;;;;;;;;;;;;;;10.34;78.10;100224.38;4840482;29;19916;-80
2024/03/05 01:19:24;;;;;;;;;;;;;;;10.16;79.72;100229.06;4829701;29;19920;-79
2024/03/05 01:22:16;;;;;;;;;;;;;;;10.25;79.55;100217.06;4841799;29;19920;-79
2024/03/05 01:25:08;;;;;;;;;;;;;;;10.42;78.88;100220.81;4844769;29;20330;-80
2024/03/05 01:27:59;;;;;;;;;;;;;;;10.57;78.04;100212.13;4842796;29;19917;-79
2024/03/05 01:30:51;;;;;;;;;;;;;;;10.35;78.51;100223.25;4840989;29;19920;-80
2024/03/05 01:33:43;;;;;;;;;;;;;;;9.93;80.14;100225.75;4827572;29;19916;-79
2024/03/05 01:36:35;;;;;;;;;;;;;;;10.18;79.94;100215.97;4828535;29;19917;-79
2024/03/05 01:39:30;;;;;;;;;;;;;;;10.25;78.76;100230.66;4841579;29;20386;-79
2024/03/05 01:42:22;;;;;;;;;;;;;;;9.96;80.75;100225.09;4847072;29;19920;-79
2024/03/05 01:45:19;;;;;;;;;;;;;;;10.08;80.89;100227.16;4844912;29;19916;-80
2024/03/05 01:48:12;;;;;;;;;;;;;;;10.15;80.59;100224.75;4847772;29;19920;-80
2024/03/05 01:51:09;;;;;;;;;;;;;;;10.20;80.49;100214.53;4845828;29;20306;-80
2024/03/05 01:54:01;;;;;;;;;;;;;;;10.24;80.51;100225.53;4843598;29;19920;-80
2024/03/05 01:56:53;;;;;;;;;;;;;;;10.15;80.47;100220.09;4844931;29;19924;-79
2024/03/05 01:59:45;;;;;;;;;;;;;;;10.12;80.66;100217.22;4844777;29;19921;-81
2024/03/05 02:02:37;;;;;;;;;;;;;;;10.12;80.51;100212.59;4846936;29;20389;-79
2024/03/05 02:05:29;;;;;;;;;;;;;;;10.06;80.25;100208.44;4845898;29;19916;-79
2024/03/05 02:08:21;;;;;;;;;;;;;;;10.05;80.10;100209.59;4843641;29;20382;-79
2024/03/05 02:11:13;;;;;;;;;;;;;;;10.04;80.06;100212.63;4833771;29;19920;-79
2024/03/05 02:14:05;;;;;;;;;;;;;;;10.18;79.79;100214.03;4831750;29;19917;-80
2024/03/05 02:16:58;;;;;;;;;;;;;;;10.24;78.52;100210.03;4848749;29;19916;-80
2024/03/05 02:19:52;;;;;;;;;;;;;;;10.16;78.42;100199.16;4846342;29;19925;-79
2024/03/05 02:22:44;;;;;;;;;;;;;;;10.16;78.63;100201.88;4844440;29;19916;-79
2024/03/05 02:25:36;;;;;;;;;;;;;;;10.14;79.09;100199.50;4833739;29;19916;-79
2024/03/05 02:28:28;;;;;;;;;;;;;;;10.22;79.00;100189.72;4845134;29;19920;-80
2024/03/05 02:31:23;;;;;;;;;;;;;;;10.24;78.88;100182.06;4843308;29;19917;-80
2024/03/05 02:34:16;;;;;;;;;;;;;;;10.20;78.33;100181.91;4833036;29;19916;-80
2024/03/05 02:37:08;;;;;;;;;;;;;;;10.33;77.88;100180.09;4831162;29;20363;-79
2024/03/05 02:40:00;;;;;;;;;;;;;;;10.44;77.55;100180.53;4847620;29;19924;-79
2024/03/05 02:42:52;;;;;;;;;;;;;;;10.21;77.66;100177.25;4845727;29;19920;-79
2024/03/05 02:45:45;;;;;;;;;;;;;;;9.99;79.03;100186.44;4843808;29;19916;-80
2024/03/05 02:48:37;;;;;;;;;;;;;;;10.13;78.08;100187.03;4846504;29;19917;-79
2024/03/05 02:51:29;;;;;;;;;;;;;;;10.17;77.56;100179.84;4831556;29;20738;-79
2024/03/05 02:54:21;;;;;;;;;;;;;;;10.02;78.43;100180.34;4842586;29;19916;-79
2024/03/05 02:57:13;;;;;;;;;;;;;;;10.04;78.83;100188.97;4846218;29;19920;-79
2024/03/05 03:00:08;;;;;;;;;;;;;;;9.82;79.85;100187.25;4843853;29;19920;-80
2024/03/05 03:02:57;;;;;;;;;;;;;;;9.72;80.24;100184.09;4831316;29;20383;-80
2024/03/05 03:05:49;;;;;;;;;;;;;;;9.74;80.80;100190.81;4826819;29;19920;-80
2024/03/05 03:08:41;;;;;;;;;;;;;;;9.86;79.88;100187.41;4829375;29;19917;-79
2024/03/05 03:11:33;;;;;;;;;;;;;;;9.74;80.52;100187.28;4846359;29;20383;-79
2024/03/05 03:14:25;;;;;;;;;;;;;;;9.82;80.53;100189.97;4841309;29;20394;-82
2024/03/05 03:17:18;;;;;;;;;;;;;;;9.67;81.18;100190.47;4835863;29;19921;-79
2024/03/05 03:20:10;;;;;;;;;;;;;;;9.60;81.78;100186.69;4831761;29;19925;-79
2024/03/05 03:23:02;;;;;;;;;;;;;;;9.52;81.87;100192.91;4843391;29;19916;-79
2024/03/05 03:25:54;;;;;;;;;;;;;;;9.55;82.01;100193.03;4845423;29;19920;-80
2024/03/05 03:28:46;;;;;;;;;;;;;;;9.59;82.24;100190.50;4844527;29;19924;-79
2024/03/05 03:31:38;;;;;;;;;;;;;;;9.59;81.98;100188.59;4842595;29;19917;-79
2024/03/05 03:34:30;;;;;;;;;;;;;;;9.51;82.56;100185.88;4846182;29;20375;-80
2024/03/05 03:37:22;;;;;;;;;;;;;;;9.48;82.81;100181.09;4830570;29;19920;-79
2024/03/05 03:40:20;;;;;;;;;;;;;;;9.45;82.95;100187.94;4841566;29;19924;-79
2024/03/05 03:43:13;;;;;;;;;;;;;;;9.47;82.53;100190.34;4830328;29;19916;-80
2024/03/05 03:46:05;;;;;;;;;;;;;;;9.49;82.51;100190.84;4842867;29;20386;-79
2024/03/05 03:48:57;;;;;;;;;;;;;;;9.41;82.25;100182.38;4845740;29;19916;-79
2024/03/05 03:51:55;;;;;;;;;;;;;;;9.39;81.83;100179.19;4843744;29;19920;-80
2024/03/05 03:54:47;;;;;;;;;;;;;;;9.43;81.78;100182.84;4841929;29;20310;-81
2024/03/05 03:57:37;;;;;;;;;;;;;;;9.43;81.48;100195.63;4847732;29;19916;-80
2024/03/05 04:00:29;;;;;;;;;;;;;;;9.40;81.77;100202.47;4843098;29;20298;-79
2024/03/05 04:03:21;;;;;;;;;;;;;;;9.48;81.55;100195.47;4842504;29;19920;-79
2024/03/05 04:06:13;;;;;;;;;;;;;;;9.57;81.10;100200.88;4844175;29;19917;-79
2024/03/05 04:09:05;;;;;;;;;;;;;;;9.47;81.05;100201.19;4828489;29;19920;-78
2024/03/05 04:11:59;;;;;;;;;;;;;;;9.42;81.09;100200.25;4845439;29;19916;-79
2024/03/05 04:14:51;;;;;;;;;;;;;;;9.50;80.71;100206.00;4843368;29;19920;-80
2024/03/05 04:17:46;;;;;;;;;;;;;;;9.50;80.00;100197.88;4841118;29;19939;-79
2024/03/05 04:20:38;;;;;;;;;;;;;;;9.56;79.84;100204.69;4830140;29;19921;-79
2024/03/05 04:23:30;;;;;;;;;;;;;;;9.70;79.98;100197.19;4837373;29;19920;-80
2024/03/05 04:26:28;;;;;;;;;;;;;;;9.71;79.93;100202.28;4832291;29;20383;-79
2024/03/05 04:29:20;;;;;;;;;;;;;;;9.75;79.99;100199.75;4843153;29;19920;-79
2024/03/05 04:32:12;;;;;;;;;;;;;;;9.65;80.45;100200.09;4841216;29;19921;-80
2024/03/05 04:35:04;;;;;;;;;;;;;;;9.49;81.62;100196.25;4844493;29;19916;-80
2024/03/05 04:37:58;;;;;;;;;;;;;;;9.47;81.84;100201.19;4828923;29;19920;-79
2024/03/05 04:40:50;;;;;;;;;;;;;;;9.56;81.09;100191.13;4843412;29;19924;-80
2024/03/05 04:43:43;;;;;;;;;;;;;;;9.44;81.64;100195.31;4841280;29;20595;-79
2024/03/05 04:46:35;;;;;;;;;;;;;;;9.43;82.05;100182.84;4840773;29;19916;-79
2024/03/05 04:49:27;;;;;;;;;;;;;;;9.37;82.07;100181.41;4844226;29;19917;-79
2024/03/05 04:52:33;;;;;;;;;;;;;;;9.31;82.49;100187.31;5104839;27;19924;-79
2024/03/05 04:55:25;;;;;;;;;;;;;;;9.25;82.69;100188.59;5091926;28;20381;-79
2024/03/05 04:58:17;;;;;;;;;;;;;;;9.25;82.37;100183.16;5086366;28;19927;-78
2024/03/05 05:01:10;;;;;;;;;;;;;;;9.27;81.99;100173.59;5089325;28;19930;-79
2024/03/05 05:04:01;;;;;;;;;;;;;;;9.27;81.96;100180.94;5093112;28;19943;-79
2024/03/05 05:06:54;;;;;;;;;;;;;;;9.45;81.47;100177.09;5090682;28;19920;-79
2024/03/05 05:09:46;;;;;;;;;;;;;;;9.32;81.57;100173.44;5083777;28;19924;-78
2024/03/05 05:12:38;;;;;;;;;;;;;;;9.21;82.07;100180.28;5091796;28;19920;-79
2024/03/05 05:15:29;;;;;;;;;;;;;;;9.16;82.69;100180.44;5089047;28;19916;-78
2024/03/05 05:18:21;;;;;;;;;;;;;;;9.10;82.92;100179.00;5093576;28;19916;-78
2024/03/05 05:21:13;;;;;;;;;;;;;;;9.01;82.83;100192.56;5089305;28;19917;-79
2024/03/05 05:24:05;;;;;;;;;;;;;;;8.90;82.50;100199.41;5087420;28;19920;-78
2024/03/05 05:26:57;;;;;;;;;;;;;;;9.01;82.08;100191.78;5091651;28;19921;-78
2024/03/05 05:29:49;;;;;;;;;;;;;;;8.98;81.82;100201.34;5089947;28;19917;-79
2024/03/05 05:32:41;;;;;;;;;;;;;;;8.90;81.89;100195.88;5087160;28;20301;-77
2024/03/05 05:35:33;;;;;;;;;;;;;;;8.88;82.39;100200.84;5090878;28;19920;-79
2024/03/05 05:38:24;;;;;;;;;;;;;;;9.00;82.03;100192.88;5089507;28;20393;-79
2024/03/05 05:41:16;;;;;;;;;;;;;;;9.04;81.83;100193.06;5099166;28;19916;-80
2024/03/05 05:44:08;;;;;;;;;;;;;;;8.89;81.98;100197.00;5090976;28;19916;-79
2024/03/05 05:47:00;;;;;;;;;;;;;;;8.89;81.94;100197.00;5088773;28;20377;-79
2024/03/05 05:49:53;;;;;;;;;;;;;;;8.93;81.10;100198.78;5076879;28;20305;-79
2024/03/05 05:52:45;;;;;;;;;;;;;;;9.34;79.78;100192.91;5103182;28;19924;-78
2024/03/05 05:55:34;;;;;;;;;;;;;;;9.62;77.88;100190.66;5088056;28;19916;-81
2024/03/05 05:58:26;;;;;;;;;;;;;;;9.78;76.82;100193.66;5083251;28;19920;-79
2024/03/05 06:01:18;;;;;;;;;;;;;;;9.86;76.71;100192.84;5075493;28;19921;-79
2024/03/05 06:04:10;;;;;;;;;;;;;;;9.82;76.62;100200.03;5071631;28;19917;-80
2024/03/05 06:07:00;;;;;;;;;;;;;;;9.86;76.20;100203.69;5056019;28;19917;-77
2024/03/05 06:09:52;;;;;;;;;;;;;;;9.87;75.65;100199.88;5055914;28;19921;-78
2024/03/05 06:12:44;;;;;;;;;;;;;;;9.91;75.53;100198.09;5068754;28;19921;-79
2024/03/05 06:15:36;;;;;;;;;;;;;;;9.96;75.22;100197.94;5070096;28;19924;-78
2024/03/05 06:18:28;;;;;;;;;;;;;;;10.20;74.78;100200.94;5086253;28;19920;-76
2024/03/05 06:21:20;;;;;;;;;;;;;;;10.27;74.02;100190.34;5057653;28;19916;-79
2024/03/05 06:24:12;;;;;;;;;;;;;;;10.31;73.83;100201.34;5062591;28;19920;-79
2024/03/05 06:27:02;;;;;;;;;;;;;;;10.33;73.72;100196.41;5084153;28;20122;-79
2024/03/05 06:30:00;;;;;;;;;;;;;;;10.55;75.41;100198.06;5074066;28;19920;-79
2024/03/05 06:32:50;;;;;;;;;;;;;;;10.41;73.57;100202.94;5069297;28;19924;-79
2024/03/05 06:35:42;;;;;;;;;;;;;;;10.46;73.39;100208.19;5073701;28;19921;-80
2024/03/05 06:38:34;;;;;;;;;;;;;;;10.41;73.22;100208.38;5074373;28;19921;-80
2024/03/05 06:41:26;;;;;;;;;;;;;;;10.42;73.24;100207.22;5066761;28;20382;-79
2024/03/05 06:44:20;;;;;;;;;;;;;;;10.51;73.81;100197.94;5075679;28;19920;-79
2024/03/05 06:47:11;;;;;;;;;;;;;;;10.59;73.31;100207.16;5072925;28;20313;-79
2024/03/05 06:50:01;;;;;;;;;;;;;;;10.59;74.23;100207.16;5076181;28;20293;-79
2024/03/05 06:59:09;;;;;;;;;;;;;;;10.64;73.95;100218.66;5075269;28;20320;-79
2024/03/05 07:02:01;;;;;;;;;;;;;;;10.72;73.68;100220.53;5072816;28;19916;-79
2024/03/05 07:04:53;;;;;;;;;;;;;;;10.72;73.98;100225.97;5077108;28;19920;-79
2024/03/05 07:07:46;;;;;;;;;;;;;;;10.76;73.92;100220.69;5073919;28;19920;-79
2024/03/05 07:10:41;;;;;;;;;;;;;;;10.78;74.22;100221.13;5066820;28;19920;-79
2024/03/05 07:13:36;;;;;;;;;;;;;;;10.80;74.08;100237.13;5071880;28;19916;-79
2024/03/05 07:16:28;;;;;;;;;;;;;;;10.85;73.81;100242.38;5072794;28;19920;-79
2024/03/05 07:19:20;;;;;;;;;;;;;;;10.87;72.71;100235.47;5075982;28;20391;-78
2024/03/05 07:22:12;;;;;;;;;;;;;;;10.97;72.11;100232.38;5058719;28;19924;-79
2024/03/05 07:25:05;;;;;;;;;;;;;;;10.95;73.14;100237.38;5070725;28;19916;-78
2024/03/05 07:27:57;;;;;;;;;;;;;;;11.06;73.57;100243.22;5076949;28;20316;-79
2024/03/05 07:30:49;;;;;;;;;;;;;;;11.11;74.02;100246.56;5075360;28;19920;-78
2024/03/05 07:33:41;;;;;;;;;;;;;;;11.19;74.03;100236.72;5074046;28;20296;-78
2024/03/05 07:36:33;;;;;;;;;;;;;;;11.30;73.50;100232.50;5075230;28;19917;-78
2024/03/05 07:39:25;;;;;;;;;;;;;;;11.36;73.09;100241.25;5073084;28;19916;-78
2024/03/05 07:42:17;;;;;;;;;;;;;;;11.39;72.51;100243.31;5070108;28;19916;-80
2024/03/05 07:45:09;;;;;;;;;;;;;;;11.49;70.20;100245.63;5075527;28;19920;-78
2024/03/05 07:48:01;;;;;;;;;;;;;;;11.43;70.89;100250.47;5073441;28;19920;-79
2024/03/05 07:50:53;;;;;;;;;;;;;;;11.50;70.34;100255.41;5076857;28;20531;-79
2024/03/05 07:53:51;;;;;;;;;;;;;;;11.45;70.58;100261.03;5073326;28;19920;-78
2024/03/05 07:56:40;;;;;;;;;;;;;;;11.50;71.65;100255.41;5072969;28;20389;-78
2024/03/05 07:59:32;;;;;;;;;;;;;;;11.51;73.16;100263.25;5074609;28;19916;-79
2024/03/05 08:02:25;;;;;;;;;;;;;;;11.55;73.76;100264.16;5074292;28;19916;-78
2024/03/05 08:05:20;;;;;;;;;;;;;;;11.68;73.58;100261.50;5074559;28;20405;-78
2024/03/05 08:08:13;;;;;;;;;;;;;;;11.73;73.36;100264.06;5074267;28;20336;-79
2024/03/05 08:11:05;;;;;;;;;;;;;;;11.80;72.21;100269.75;5073097;28;19921;-79
2024/03/05 08:13:57;;;;;;;;;;;;;;;11.82;72.26;100270.22;5071226;28;20405;-77
2024/03/05 08:16:49;;;;;;;;;;;;;;;11.85;72.16;100266.81;5073519;28;19916;-78
2024/03/05 08:19:41;;;;;;;;;;;;;;;11.94;71.90;100270.25;5076087;28;20381;-77
2024/03/05 08:22:30;;;;;;;;;;;;;;;12.00;71.40;100274.38;5073620;28;20302;-78
2024/03/05 08:25:22;;;;;;;;;;;;;;;12.14;71.80;100274.88;5067176;28;19955;-78
2024/03/05 08:28:14;;;;;;;;;;;;;;;12.18;71.60;100275.00;5071515;28;19916;-78
2024/03/05 08:31:06;;;;;;;;;;;;;;;12.25;71.46;100280.69;5072231;28;19924;-77
2024/03/05 08:34:00;;;;;;;;;;;;;;;12.30;70.96;100273.09;5070745;28;20378;-78
2024/03/05 08:36:49;;;;;;;;;;;;;;;12.41;71.34;100279.72;5076082;28;19920;-78
2024/03/05 08:39:44;;;;;;;;;;;;;;;12.46;70.53;100275.97;5071940;28;20389;-78
2024/03/05 08:42:36;;;;;;;;;;;;;;;12.47;70.00;100283.03;5074453;28;20325;-79
2024/03/05 08:45:28;;;;;;;;;;;;;;;12.51;69.40;100283.94;5073257;28;19917;-76
2024/03/05 08:48:20;;;;;;;;;;;;;;;12.62;68.82;100285.09;5075837;28;19917;-79
2024/03/05 08:51:09;;;;;;;;;;;;;;;12.63;67.62;100292.16;5074433;28;19928;-80
2024/03/05 08:54:06;;;;;;;;;;;;;;;12.67;67.43;100292.25;5067735;28;20385;-79
2024/03/05 08:56:58;;;;;;;;;;;;;;;12.79;68.41;100300.47;5075545;28;19920;-79
2024/03/05 08:59:50;;;;;;;;;;;;;;;12.91;68.05;100291.47;5073888;28;19917;-79
2024/03/05 09:02:43;;;;;;;;;;;;;;;12.95;65.62;100295.94;5073043;28;20542;-79
2024/03/05 09:05:35;;;;;;;;;;;;;;;13.03;66.73;100300.47;5071011;28;19917;-78
2024/03/05 09:08:27;;;;;;;;;;;;;;;13.18;66.92;100296.28;5073285;28;19924;-78
2024/03/05 09:11:19;;;;;;;;;;;;;;;13.30;65.06;100300.94;5071314;28;19921;-79
2024/03/05 09:14:08;;;;;;;;;;;;;;;13.39;64.40;100296.16;5072226;28;19917;-78
2024/03/05 09:17:00;;;;;;;;;;;;;;;13.45;64.81;100298.31;5065507;28;19916;-78
2024/03/05 09:19:52;;;;;;;;;;;;;;;13.41;64.45;100305.56;5070156;28;19920;-78
2024/03/05 09:22:47;;;;;;;;;;;;;;;13.48;64.24;100302.28;5072801;28;19916;-78
2024/03/05 09:25:41;;;;;;;;;;;;;;;13.51;64.42;100302.38;5071838;28;19916;-79
2024/03/05 09:28:32;;;;;;;;;;;;;;;13.59;63.20;100306.13;5073949;28;19920;-78
2024/03/05 09:31:26;;;;;;;;;;;;;;;13.61;62.52;100307.34;5073259;28;20380;-78
2024/03/05 09:34:18;;;;;;;;;;;;;;;13.63;63.37;100313.28;5069893;28;20309;-79
2024/03/05 09:37:10;;;;;;;;;;;;;;;13.64;63.75;100314.06;5087739;28;19917;-78
2024/03/05 09:40:02;;;;;;;;;;;;;;;13.75;64.33;100319.84;5074862;28;19916;-78
2024/03/05 09:42:54;;;;;;;;;;;;;;;13.83;64.67;100327.09;5077198;28;20401;-78
2024/03/05 09:45:47;;;;;;;;;;;;;;;13.85;62.80;100335.78;5076830;28;19921;-79
2024/03/05 09:48:42;;;;;;;;;;;;;;;13.93;63.57;100332.09;5073795;28;20563;-78
2024/03/05 09:51:34;;;;;;;;;;;;;;;13.99;62.99;100325.25;5075482;28;19950;-79
2024/03/05 09:54:26;;;;;;;;;;;;;;;14.11;64.53;100330.69;5076995;28;19920;-79
2024/03/05 09:57:18;;;;;;;;;;;;;;;14.11;63.49;100339.69;5073326;28;19920;-78
2024/03/05 10:00:17;;;;;;;;;;;;;;;14.03;62.05;100340.59;5076584;28;20373;-79
2024/03/05 10:03:08;;;;;;;;;;;;;;;14.14;61.17;100343.63;5074031;28;20289;-79
2024/03/05 10:06:00;;;;;;;;;;;;;;;14.20;60.96;100335.97;5077901;28;19920;-79
2024/03/05 10:08:52;;;;;;;;;;;;;;;14.32;60.61;100333.22;5076312;28;19916;-79
2024/03/05 10:11:44;;;;;;;;;;;;;;;14.48;60.94;100329.38;5073287;28;19925;-78
2024/03/05 10:14:37;;;;;;;;;;;;;;;14.62;59.40;100333.63;5069677;28;19920;-79
2024/03/05 10:17:29;;;;;;;;;;;;;;;14.78;60.10;100332.47;5070738;28;19916;-79
2024/03/05 10:20:36;;;;;;;;;;;;;;;14.94;59.33;100343.44;5069283;28;19924;-78
2024/03/05 10:23:28;;;;;;;;;;;;;;;15.02;58.06;100339.75;5067816;28;19917;-78
2024/03/05 10:26:23;;;;;;;;;;;;;;;15.16;58.28;100340.09;5066008;28;19920;-79
2024/03/05 10:29:15;;;;;;;;;;;;;;;15.22;54.41;100341.41;5077100;28;19921;-79
2024/03/05 10:32:11;;;;;;;;;;;;;;;15.25;53.58;100343.44;5072889;28;20401;-79
2024/03/05 10:35:03;;;;;;;;;;;;;;;15.35;53.50;100339.34;5077491;28;19917;-79
2024/03/05 10:38:02;;;;;;;;;;;;;;;15.52;54.80;100351.91;5074898;28;19920;-79
2024/03/05 10:40:55;;;;;;;;;;;;;;;15.55;52.94;100346.50;5071334;28;19916;-79
2024/03/05 10:43:48;;;;;;;;;;;;;;;15.58;53.24;100347.75;5073484;28;19916;-79
2024/03/05 10:46:40;;;;;;;;;;;;;;;15.65;52.88;100347.88;5068772;28;19916;-78
2024/03/05 10:49:32;;;;;;;;;;;;;;;15.81;53.07;100346.69;5078093;28;19917;-79
2024/03/05 10:52:25;;;;;;;;;;;;;;;15.94;53.11;100346.56;5072064;28;19920;-79
2024/03/05 10:55:19;;;;;;;;;;;;;;;16.14;53.98;100346.22;5073824;28;19916;-79
2024/03/05 11:01:07;;;;;;;;;;;;;;;16.37;51.32;100342.72;5074951;28;20400;-79
2024/03/05 11:04:02;;;;;;;;;;;;;;;16.50;51.69;100342.22;5072541;28;19916;-79
2024/03/05 11:06:56;;;;;;;;;;;;;;;16.58;51.29;100343.94;5076456;28;20389;-79
2024/03/05 11:09:48;;;;;;;;;;;;;;;16.69;50.28;100344.13;5086615;28;19916;-79
2024/03/05 11:12:40;;;;;;;;;;;;;;;16.89;50.99;100342.13;5075157;28;19921;-79
2024/03/05 11:15:33;;;;;;;;;;;;;;;16.86;51.15;100338.19;5074217;28;19916;-79
2024/03/05 11:18:35;;;;;;;;;;;;;;;16.82;48.38;100339.25;5058825;28;19917;-79
2024/03/05 11:21:28;;;;;;;;;;;;;;;16.74;48.66;100335.59;5068752;28;20506;-79
2024/03/05 11:24:20;;;;;;;;;;;;;;;16.82;49.15;100337.31;5066866;28;19916;-78
2024/03/05 11:27:12;;;;;;;;;;;;;;;17.06;50.10;100339.69;5057470;28;19920;-79
2024/03/05 11:30:21;;;;;;;;;;;;;;;17.09;48.59;100333.44;5055998;28;19916;-79
2024/03/05 11:33:14;;;;;;;;;;;;;;;17.25;48.89;100327.81;5073922;28;19920;-79
2024/03/05 11:36:03;;;;;;;;;;;;;;;17.30;49.81;100334.94;5074631;28;19916;-79
2024/03/05 11:39:05;;;;;;;;;;;;;;;17.32;49.76;100324.38;5073205;28;20293;-79
2024/03/05 11:41:59;;;;;;;;;;;;;;;17.34;50.20;100324.78;5075713;28;19916;-79
2024/03/05 11:44:52;;;;;;;;;;;;;;;17.50;50.93;100328.97;5074276;28;20370;-79
2024/03/05 11:47:45;;;;;;;;;;;;;;;17.47;49.49;100321.44;5076947;28;19916;-79
2024/03/05 11:50:37;;;;;;;;;;;;;;;17.31;49.14;100320.03;5075575;28;19916;-79
2024/03/05 11:53:29;;;;;;;;;;;;;;;17.41;50.33;100324.91;5072388;28;19920;-79
2024/03/05 11:56:21;;;;;;;;;;;;;;;17.33;50.13;100317.69;5075541;28;19916;-79
2024/03/05 11:59:10;;;;;;;;;;;;;;;17.43;50.13;100314.31;5073422;28;20377;-79
2024/03/05 12:02:02;;;;;;;;;;;;;;;17.47;50.27;100301.44;5075583;28;19916;-78
2024/03/05 12:04:54;;;;;;;;;;;;;;;17.61;49.79;100298.91;5070586;28;19924;-79
2024/03/05 12:07:57;;;;;;;;;;;;;;;17.58;50.16;100307.84;5084839;28;19916;-79
2024/03/05 12:10:50;;;;;;;;;;;;;;;17.67;49.56;100307.63;5070563;28;20393;-80
2024/03/05 12:13:42;;;;;;;;;;;;;;;17.59;49.64;100298.47;5072124;28;19920;-80
2024/03/05 12:16:37;;;;;;;;;;;;;;;17.59;50.12;100298.47;5073270;28;19920;-80
2024/03/05 12:19:29;;;;;;;;;;;;;;;17.72;50.75;100296.28;5075787;28;19920;-78
2024/03/05 12:22:18;;;;;;;;;;;;;;;17.80;49.95;100285.00;5073536;28;19917;-79
2024/03/05 12:25:10;;;;;;;;;;;;;;;17.70;50.08;100293.91;5071564;28;20385;-80
2024/03/05 12:28:04;;;;;;;;;;;;;;;17.71;50.23;100289.22;5076271;28;19917;-80
2024/03/05 12:30:56;;;;;;;;;;;;;;;17.86;49.92;100279.97;5062373;28;19927;-78
2024/03/05 12:33:48;;;;;;;;;;;;;;;17.93;50.59;100283.56;5074887;28;19921;-80
2024/03/05 12:36:40;;;;;;;;;;;;;;;18.02;49.09;100286.06;5071495;28;19917;-80
2024/03/05 12:39:32;;;;;;;;;;;;;;;18.13;49.88;100277.94;5072708;28;19917;-78
2024/03/05 12:42:23;;;;;;;;;;;;;;;18.20;50.12;100281.53;5076158;28;19920;-79
2024/03/05 12:45:16;;;;;;;;;;;;;;;18.16;49.23;100288.16;5073402;28;19920;-80
2024/03/05 12:48:08;;;;;;;;;;;;;;;18.25;48.50;100285.91;5063598;28;19917;-79
2024/03/05 12:50:59;;;;;;;;;;;;;;;18.13;48.36;100270.47;5081484;28;19920;-78
2024/03/05 12:53:51;;;;;;;;;;;;;;;18.06;48.29;100280.59;5073445;28;19921;-80
2024/03/05 12:56:46;;;;;;;;;;;;;;;18.06;48.29;100277.84;5089847;28;19916;-81
2024/03/05 12:59:38;;;;;;;;;;;;;;;18.07;49.12;100276.66;5087365;28;20296;-79
2024/03/05 13:02:31;;;;;;;;;;;;;;;18.08;48.79;100270.00;5071342;28;20300;-80
2024/03/05 13:05:20;;;;;;;;;;;;;;;18.04;48.64;100274.66;5076179;28;19916;-80
2024/03/05 13:08:12;;;;;;;;;;;;;;;18.05;49.68;100273.50;5072624;28;19917;-80
2024/03/05 13:11:04;;;;;;;;;;;;;;;18.00;49.76;100271.06;5070778;28;19917;-79
2024/03/05 13:13:58;;;;;;;;;;;;;;;17.71;49.34;100268.00;5067236;28;19920;-82
2024/03/05 13:16:53;;;;;;;;;;;;;;;17.81;49.28;100266.53;5067512;28;19916;-81
2024/03/05 13:19:45;;;;;;;;;;;;;;;17.85;48.92;100268.16;5072007;28;19916;-78
2024/03/05 13:22:37;;;;;;;;;;;;;;;17.74;49.36;100260.94;5086292;28;20394;-79
2024/03/05 13:25:29;;;;;;;;;;;;;;;17.56;50.00;100263.47;5070920;28;19920;-79
2024/03/05 13:28:21;;;;;;;;;;;;;;;17.64;49.75;100258.84;5078065;28;20313;-78
2024/03/05 13:31:13;;;;;;;;;;;;;;;17.67;50.51;100264.41;5076319;28;19916;-79
2024/03/05 13:34:09;;;;;;;;;;;;;;;17.71;50.35;100261.72;5079738;28;19925;-79
2024/03/05 13:37:00;;;;;;;;;;;;;;;17.71;50.12;100265.25;5074170;28;19920;-80
2024/03/05 13:39:52;;;;;;;;;;;;;;;17.74;49.98;100264.50;5075896;28;19916;-81
2024/03/05 13:42:44;;;;;;;;;;;;;;;17.70;49.84;100265.63;5072955;28;19917;-79
2024/03/05 13:45:36;;;;;;;;;;;;;;;17.62;50.26;100263.94;5076510;28;19920;-78
2024/03/05 13:48:28;;;;;;;;;;;;;;;17.57;50.47;100256.78;5074311;28;19916;-79
2024/03/05 13:51:20;;;;;;;;;;;;;;;17.51;50.10;100259.06;5076552;28;19916;-80
2024/03/05 13:54:12;;;;;;;;;;;;;;;17.48;51.05;100265.31;5075105;28;19928;-79
2024/03/05 13:57:03;;;;;;;;;;;;;;;17.52;51.41;100257.13;5072746;28;20397;-78
2024/03/05 13:59:54;;;;;;;;;;;;;;;17.43;52.16;100262.09;5074749;28;19917;-79
2024/03/05 14:02:43;;;;;;;;;;;;;;;17.38;51.12;100262.41;5073820;28;19917;-78
2024/03/05 14:05:40;;;;;;;;;;;;;;;17.27;51.67;100258.75;5076044;28;19916;-80
2024/03/05 14:08:32;;;;;;;;;;;;;;;17.29;51.82;100257.19;5078588;28;19920;-79
2024/03/05 14:11:24;;;;;;;;;;;;;;;17.20;52.36;100255.88;5076546;28;20301;-79
2024/03/05 14:14:19;;;;;;;;;;;;;;;17.20;51.71;100258.63;5076262;28;19928;-79
2024/03/05 14:17:11;;;;;;;;;;;;;;;17.07;52.31;100247.84;5075107;28;19916;-80
2024/03/05 14:20:03;;;;;;;;;;;;;;;17.04;53.14;100253.28;5076976;28;19920;-80
2024/03/05 14:22:54;;;;;;;;;;;;;;;17.07;53.11;100261.56;5074083;28;19916;-80
2024/03/05 14:25:46;;;;;;;;;;;;;;;17.03;52.71;100249.75;5070594;28;19916;-79
2024/03/05 14:28:38;;;;;;;;;;;;;;;16.96;53.62;100249.66;5079528;28;19920;-81
2024/03/05 14:31:27;;;;;;;;;;;;;;;17.01;53.71;100252.09;5069403;28;19917;-79
2024/03/05 14:34:19;;;;;;;;;;;;;;;17.01;53.81;100252.09;5073424;28;19920;-80
2024/03/05 14:37:12;;;;;;;;;;;;;;;16.97;54.45;100253.97;5076971;28;19920;-80
2024/03/05 14:40:04;;;;;;;;;;;;;;;16.92;55.24;100242.50;5067799;28;19916;-78
2024/03/05 14:42:57;;;;;;;;;;;;;;;16.94;55.31;100246.47;5075464;28;20398;-80
2024/03/05 14:45:46;;;;;;;;;;;;;;;16.97;55.10;100239.44;5077130;28;19916;-80
2024/03/05 14:48:38;;;;;;;;;;;;;;;16.92;54.98;100232.31;5067856;28;19924;-79
2024/03/05 14:51:29;;;;;;;;;;;;;;;16.90;55.29;100244.84;5075782;28;19917;-79
2024/03/05 14:54:19;;;;;;;;;;;;;;;16.91;54.92;100246.44;5076619;28;20301;-80
2024/03/05 14:57:11;;;;;;;;;;;;;;;16.89;54.26;100246.78;5064668;28;19920;-79